Time;durP1;ratioP1;P1;durP2;ratioP2;P2;SDS_P1;SDS_P2;PMS_P1;PMS_P2;Temp;Humidity;BMP_temperature;BMP_pressure;BME280_temperature;BME280_humidity;BME280_pressure;Samples;Min_cycle;Max_cycle;Signal;HPM_P1;HPM_P2
2023/04/03 00:02:24;;;;;;;16.67;9.02;;;;;;;0.96;100.00;102894.03;5165266;28;20014;-74
2023/04/03 00:04:54;;;;;;;16.65;8.30;;;;;;;0.92;100.00;102899.47;5165236;28;20125;-74
2023/04/03 00:07:25;;;;;;;23.05;8.75;;;;;;;0.85;100.00;102896.16;5164739;28;20080;-74
2023/04/03 00:09:55;;;;;;;18.55;8.57;;;;;;;0.80;100.00;102902.50;5164290;28;20030;-74
2023/04/03 00:12:26;;;;;;;17.73;8.20;;;;;;;0.77;100.00;102896.44;5164958;28;20018;-74
2023/04/03 00:14:56;;;;;;;15.02;8.57;;;;;;;0.78;100.00;102905.22;5171464;28;20035;-74
2023/04/03 00:17:27;;;;;;;14.65;8.35;;;;;;;0.74;100.00;102904.44;5159763;28;20045;-74
2023/04/03 00:19:57;;;;;;;15.80;9.40;;;;;;;0.74;100.00;102912.38;5164790;28;20026;-74
2023/04/03 00:22:28;;;;;;;25.27;8.98;;;;;;;0.72;100.00;102910.72;5164221;28;20022;-74
2023/04/03 00:24:58;;;;;;;19.23;8.60;;;;;;;0.69;100.00;102916.09;5164816;28;20062;-74
2023/04/03 00:27:29;;;;;;;15.05;8.13;;;;;;;0.68;100.00;102909.97;5164140;28;20194;-74
2023/04/03 00:29:59;;;;;;;22.77;8.30;;;;;;;0.67;100.00;102910.00;5164716;28;20386;-74
2023/04/03 00:32:30;;;;;;;26.33;9.57;;;;;;;0.68;100.00;102915.25;5164457;28;20037;-74
2023/04/03 00:35:00;;;;;;;25.15;8.50;;;;;;;0.69;100.00;102914.31;5164531;28;20026;-74
2023/04/03 00:37:31;;;;;;;16.98;8.93;;;;;;;0.70;100.00;102915.19;5164197;28;20403;-74
2023/04/03 00:40:02;;;;;;;19.95;9.48;;;;;;;0.73;100.00;102920.38;5164170;28;20037;-74
2023/04/03 00:42:33;;;;;;;20.30;9.88;;;;;;;0.73;100.00;102921.22;5163272;28;20369;-74
2023/04/03 00:45:04;;;;;;;17.40;8.88;;;;;;;0.71;100.00;102919.56;5164129;28;20062;-74
2023/04/03 00:47:34;;;;;;;21.25;8.82;;;;;;;0.69;100.00;102919.59;5163981;28;20041;-74
2023/04/03 00:50:06;;;;;;;21.70;8.65;;;;;;;0.67;100.00;102917.94;5164100;28;20022;-74
2023/04/03 00:52:37;;;;;;;18.88;8.52;;;;;;;0.66;100.00;102917.09;5164195;28;20145;-74
2023/04/03 00:55:09;;;;;;;17.33;8.85;;;;;;;0.65;100.00;102911.81;5164211;28;20632;-74
2023/04/03 00:57:41;;;;;;;18.73;9.20;;;;;;;0.64;100.00;102910.97;5162021;28;20395;-74
2023/04/03 01:00:16;;;;;;;16.33;8.43;;;;;;;0.62;100.00;102912.81;5162868;28;20101;-73
2023/04/03 01:02:46;;;;;;;;;;;;;;;0.61;100.00;102919.00;5164736;28;20034;-74
2023/04/03 01:05:18;;;;;;;23.77;9.95;;;;;;;0.59;100.00;102904.97;5164367;28;19913;-74
2023/04/03 01:07:51;;;;;;;17.13;9.18;;;;;;;0.60;100.00;102917.25;5163969;28;20026;-74
2023/04/03 01:10:22;;;;;;;18.95;10.30;;;;;;;0.57;100.00;102906.81;5163546;28;20047;-73
2023/04/03 01:12:52;;;;;;;13.98;7.97;;;;;;;0.57;100.00;102901.53;5158970;28;20019;-74
2023/04/03 01:15:42;;;;;;;18.48;8.57;;;;;;;0.56;100.00;102906.88;5157926;28;20542;-74
2023/04/03 01:18:13;;;;;;;23.15;9.70;;;;;;;0.54;100.00;102909.56;5163321;28;20046;-74
2023/04/03 01:20:55;;;;;;;21.15;9.13;;;;;;;0.54;100.00;102919.25;5163194;28;20022;-74
2023/04/03 01:23:48;;;;;;;16.45;8.15;;;;;;;0.51;100.00;102918.47;5163941;28;20034;-74
2023/04/03 01:26:39;;;;;;;18.58;8.38;;;;;;;0.48;100.00;102918.53;5154865;28;20030;-74
2023/04/03 01:29:12;;;;;;;18.55;10.00;;;;;;;0.46;100.00;102916.88;5163349;28;20104;-74
2023/04/03 01:32:02;;;;;;;16.92;8.65;;;;;;;0.44;100.00;102916.91;5163674;28;20022;-74
2023/04/03 01:34:49;;;;;;;17.42;8.82;;;;;;;0.42;100.00;102915.25;5154990;28;20141;-74
2023/04/03 01:37:19;;;;;;;22.00;10.27;;;;;;;0.39;100.00;102912.69;5162466;28;20049;-74
2023/04/03 01:39:50;;;;;;;18.23;9.23;;;;;;;0.37;100.00;102918.03;5163519;28;20395;-74
2023/04/03 01:42:20;;;;;;;20.75;8.88;;;;;;;0.37;100.00;102919.81;5163172;28;20672;-73
2023/04/03 01:44:51;;;;;;;16.05;9.38;;;;;;;0.36;100.00;102921.59;5163392;28;20066;-74
2023/04/03 01:47:22;;;;;;;23.55;9.20;;;;;;;0.34;100.00;102922.56;5163168;28;20022;-74
2023/04/03 01:49:52;;;;;;;20.00;9.82;;;;;;;0.31;100.00;102920.03;5162290;28;20069;-74
2023/04/03 01:52:23;;;;;;;16.25;8.65;;;;;;;0.29;100.00;102927.97;5162013;28;20399;-74
2023/04/03 01:54:54;;;;;;;16.60;8.55;;;;;;;0.27;100.00;102923.66;5162194;28;20030;-74
2023/04/03 01:57:25;;;;;;;15.88;8.45;;;;;;;0.25;100.00;102923.69;5162644;28;20441;-74
2023/04/03 01:59:55;;;;;;;16.83;8.90;;;;;;;0.22;100.00;102929.97;5162969;28;20034;-74
2023/04/03 02:02:26;;;;;;;15.80;9.05;;;;;;;0.21;100.00;102928.22;5162525;28;20459;-74
2023/04/03 02:04:56;;;;;;;21.88;9.73;;;;;;;0.21;100.00;102924.75;5163187;28;20085;-74
2023/04/03 02:07:27;;;;;;;18.08;9.05;;;;;;;0.21;100.00;102922.97;5162454;28;20080;-74
2023/04/03 02:09:57;;;;;;;18.08;9.05;;;;;;;0.18;100.00;102936.25;5162791;28;20018;-74
2023/04/03 02:12:28;;;;;;;17.17;8.90;;;;;;;0.18;100.00;102935.38;5162664;28;20492;-74
2023/04/03 02:14:59;;;;;;;18.58;9.27;;;;;;;0.15;100.00;102932.81;5162806;28;20077;-74
2023/04/03 02:17:29;;;;;;;21.88;10.35;;;;;;;0.11;100.00;102937.34;5162053;28;20022;-74
2023/04/03 02:20:00;;;;;;;17.38;8.77;;;;;;;0.08;100.00;102932.16;5162874;28;20042;-73
2023/04/03 02:22:30;;;;;;;17.90;8.85;;;;;;;0.05;100.00;102934.91;5162403;28;20101;-74
2023/04/03 02:25:01;;;;;;;21.23;10.40;;;;;;;0.03;100.00;102936.72;5162633;28;20061;-74
2023/04/03 02:27:32;;;;;;;17.38;9.38;;;;;;;0.01;100.00;102932.41;5161750;28;20027;-74
2023/04/03 02:30:05;;;;;;;18.83;10.07;;;;;;;0.01;100.00;102935.91;5162591;28;20018;-74
2023/04/03 02:32:35;;;;;;;19.67;10.00;;;;;;;0.02;100.00;102937.63;5149933;28;20033;-74
2023/04/03 02:35:06;;;;;;;24.77;10.70;;;;;;;0.01;100.00;102937.69;5162470;28;20022;-74
2023/04/03 02:37:38;;;;;;;20.42;10.48;;;;;;;-0.01;100.00;102938.59;5161852;28;20081;-74
2023/04/03 02:40:09;;;;;;;22.35;9.80;;;;;;;-0.01;100.00;102940.34;5162229;28;20026;-74
2023/04/03 02:42:40;;;;;;;25.17;10.50;;;;;;;-0.02;100.00;102942.13;5162694;28;20072;-74
2023/04/03 02:45:10;;;;;;;20.63;10.18;;;;;;;-0.04;100.00;102943.97;5162437;28;20030;-74
2023/04/03 02:47:41;;;;;;;20.70;10.10;;;;;;;-0.03;100.00;102942.19;5162217;28;20038;-74
2023/04/03 02:50:11;;;;;;;24.25;10.63;;;;;;;-0.02;100.00;102938.63;5161718;28;20034;-74
2023/04/03 02:52:41;;;;;;;20.15;10.15;;;;;;;-0.03;100.00;102947.47;5162613;28;20030;-74
2023/04/03 02:55:15;;;;;;;22.25;10.68;;;;;;;-0.06;100.00;102943.13;5162381;28;20027;-74
2023/04/03 02:57:46;;;;;;;23.02;10.95;;;;;;;-0.06;100.00;102951.06;5160658;28;20419;-73
2023/04/03 03:00:16;;;;;;;21.42;10.60;;;;;;;-0.08;100.00;102947.59;5161029;28;20030;-73
2023/04/03 03:02:48;;;;;;;20.90;10.95;;;;;;;-0.14;100.00;102955.72;5163023;28;20046;-74
2023/04/03 03:05:19;;;;;;;20.80;10.73;;;;;;;-0.18;100.00;102951.44;5166380;28;20030;-74
2023/04/03 03:07:49;;;;;;;23.73;11.15;;;;;;;-0.23;100.00;102961.25;5165935;28;20062;-74
2023/04/03 03:10:20;;;;;;;22.13;11.30;;;;;;;-0.26;100.00;102959.56;5166247;28;20109;-74
2023/04/03 03:12:51;;;;;;;22.83;11.63;;;;;;;-0.27;100.00;102952.56;5161585;28;20151;-74
2023/04/03 03:15:21;;;;;;;22.25;10.63;;;;;;;-0.29;100.00;102954.38;5157795;28;20742;-74
2023/04/03 03:17:52;;;;;;;22.20;11.27;;;;;;;-0.27;100.00;102951.69;5164047;28;20034;-74
2023/04/03 03:20:22;;;;;;;25.67;11.65;;;;;;;-0.28;100.00;102957.88;5165946;28;20467;-74
2023/04/03 03:22:52;;;;;;;27.58;12.88;;;;;;;-0.31;100.00;102958.81;5165892;28;20053;-74
2023/04/03 03:25:23;;;;;;;25.73;11.88;;;;;;;-0.31;100.00;102950.91;5164551;28;20054;-73
2023/04/03 03:27:53;;;;;;;30.95;12.73;;;;;;;-0.32;100.00;102965.03;5165224;28;20084;-73
2023/04/03 03:30:24;;;;;;;27.40;11.93;;;;;;;-0.33;100.00;102960.66;5165597;28;20038;-74
2023/04/03 03:32:54;;;;;;;22.08;12.38;;;;;;;-0.36;100.00;102954.59;5166008;28;20030;-74
2023/04/03 03:35:25;;;;;;;23.90;12.23;;;;;;;-0.39;100.00;102962.63;5165661;28;20026;-74
2023/04/03 03:37:55;;;;;;;23.63;12.20;;;;;;;-0.40;100.00;102963.50;5165074;28;20026;-73
2023/04/03 03:40:26;;;;;;;25.20;12.77;;;;;;;-0.41;100.00;102953.88;5165177;28;20026;-74
2023/04/03 03:42:56;;;;;;;27.10;12.65;;;;;;;-0.41;100.00;102965.28;5165859;28;20368;-74
2023/04/03 03:45:27;;;;;;;26.45;11.93;;;;;;;-0.40;100.00;102968.78;5165530;28;20030;-74
2023/04/03 03:47:57;;;;;;;30.05;13.23;;;;;;;-0.40;100.00;102972.31;5165019;28;20534;-74
2023/04/03 03:50:28;;;;;;;32.50;13.82;;;;;;;-0.43;100.00;102964.47;5164922;28;20085;-74
2023/04/03 03:52:58;;;;;;;24.83;13.13;;;;;;;-0.46;100.00;102971.59;5165230;28;20030;-73
2023/04/03 03:55:29;;;;;;;30.75;13.38;;;;;;;-0.46;100.00;102972.47;5165921;28;20038;-74
2023/04/03 03:58:00;;;;;;;31.13;14.07;;;;;;;-0.46;100.00;102977.72;5164663;28;20045;-74
2023/04/03 04:00:31;;;;;;;25.58;12.25;;;;;;;-0.46;100.00;102975.09;5165145;28;20058;-73
2023/04/03 04:03:02;;;;;;;26.42;12.23;;;;;;;-0.47;100.00;102980.41;5164512;28;20376;-74
2023/04/03 04:05:32;;;;;;;30.92;12.75;;;;;;;-0.50;100.00;102975.22;5165326;28;20026;-74
2023/04/03 04:08:02;;;;;;;27.27;12.98;;;;;;;-0.54;100.00;102967.41;5164709;28;20076;-75
2023/04/03 04:10:34;;;;;;;30.30;13.30;;;;;;;-0.55;100.00;102978.00;5165026;28;20483;-74
2023/04/03 04:13:04;;;;;;;28.38;12.65;;;;;;;-0.55;100.00;102986.78;5163335;28;20050;-74
2023/04/03 04:15:35;;;;;;;26.08;12.45;;;;;;;-0.59;100.00;102982.50;5164954;28;20056;-74
2023/04/03 04:18:06;;;;;;;30.77;12.75;;;;;;;-0.60;100.00;102987.81;5164094;28;20030;-73
2023/04/03 04:20:36;;;;;;;27.50;13.30;;;;;;;-0.64;100.00;102986.16;5164783;28;20423;-74
2023/04/03 04:23:07;;;;;;;28.67;13.15;;;;;;;-0.64;100.00;102987.03;5164900;28;20027;-74
2023/04/03 04:25:37;;;;;;;26.20;13.25;;;;;;;-0.66;100.00;102985.31;5165001;28;20109;-74
2023/04/03 04:28:07;;;;;;;30.73;14.23;;;;;;;-0.67;100.00;102989.75;5163752;28;20054;-74
2023/04/03 04:30:38;;;;;;;34.88;15.18;;;;;;;-0.66;100.00;102990.59;5164738;28;20113;-74
2023/04/03 04:33:08;;;;;;;32.88;14.10;;;;;;;-0.66;100.00;102987.97;5164752;28;20031;-74
2023/04/03 04:35:41;;;;;;;27.52;14.32;;;;;;;-0.67;100.00;102989.75;5164750;28;20431;-74
2023/04/03 04:38:11;;;;;;;35.70;13.57;;;;;;;-0.69;100.00;102988.94;5164140;28;20038;-74
2023/04/03 04:40:42;;;;;;;30.83;13.80;;;;;;;-0.69;100.00;102988.06;5163929;28;20065;-74
2023/04/03 04:43:14;;;;;;;31.15;13.90;;;;;;;-0.69;100.00;102988.94;5164491;28;20064;-74
2023/04/03 04:45:44;;;;;;;31.83;13.43;;;;;;;-0.68;100.00;102984.53;5164583;28;20022;-74
2023/04/03 04:48:15;;;;;;;27.63;13.07;;;;;;;-0.68;100.00;102993.28;5163609;28;20364;-74
2023/04/03 04:50:45;;;;;;;25.17;12.98;;;;;;;-0.70;100.00;102981.94;5164441;28;20402;-74
2023/04/03 04:53:16;;;;;;;27.90;12.60;;;;;;;-0.71;100.00;102984.59;5162631;28;20509;-74
2023/04/03 04:55:46;;;;;;;33.75;12.70;;;;;;;-0.73;100.00;102994.31;5164470;28;20026;-74
2023/04/03 04:58:17;;;;;;;24.88;13.07;;;;;;;-0.75;100.00;102988.22;5163890;28;20480;-74
2023/04/03 05:00:47;;;;;;;26.52;12.60;;;;;;;-0.79;100.00;102988.31;5164431;28;20048;-74
2023/04/03 05:03:18;;;;;;;24.63;12.35;;;;;;;-0.83;100.00;102991.06;5163959;28;20042;-74
2023/04/03 05:05:48;;;;;;;26.02;13.63;;;;;;;-0.87;100.00;102990.28;5163762;28;20535;-74
2023/04/03 05:08:18;;;;;;;27.80;13.73;;;;;;;-0.88;100.00;102987.69;5163443;28;20054;-74
2023/04/03 05:10:49;;;;;;;35.95;14.90;;;;;;;-0.88;100.00;102992.97;5163812;28;20046;-74
2023/04/03 05:13:20;;;;;;;30.10;14.68;;;;;;;-0.89;100.00;102991.22;5163994;28;20056;-74
2023/04/03 05:15:50;;;;;;;31.35;13.90;;;;;;;-0.86;100.00;102997.25;5163600;28;20042;-74
2023/04/03 05:18:21;;;;;;;31.65;14.93;;;;;;;-0.81;100.00;102995.38;5162907;28;20030;-74
2023/04/03 05:20:51;;;;;;;30.30;15.70;;;;;;;-0.76;100.00;102997.03;5163494;28;20125;-74
2023/04/03 05:23:22;;;;;;;33.53;15.30;;;;;;;-0.73;100.00;103000.47;5163754;28;20069;-74
2023/04/03 05:25:53;;;;;;;38.22;16.30;;;;;;;-0.70;100.00;102997.75;5162647;28;20019;-74
2023/04/03 05:28:24;;;;;;;37.03;16.60;;;;;;;-0.67;100.00;103010.81;5162716;28;20030;-74
2023/04/03 05:30:56;;;;;;;33.72;16.77;;;;;;;-0.64;100.00;103008.13;5163574;28;20081;-74
2023/04/03 05:33:27;;;;;;;37.75;16.42;;;;;;;-0.60;100.00;103006.28;5163727;28;20636;-74
2023/04/03 05:36:03;;;;;;;29.23;15.65;;;;;;;-0.58;100.00;103004.44;5163658;28;20080;-74
2023/04/03 05:38:33;;;;;;;36.85;15.63;;;;;;;-0.56;100.00;103007.91;5162959;28;20089;-74
2023/04/03 05:41:04;;;;;;;31.13;16.10;;;;;;;-0.53;100.00;103007.81;5162813;28;20038;-74
2023/04/03 05:43:37;;;;;;;36.65;16.58;;;;;;;-0.50;100.00;103010.41;5164036;28;20026;-74
2023/04/03 05:46:23;;;;;;;35.25;16.30;;;;;;;-0.45;100.00;103005.84;5163518;28;20502;-73
2023/04/03 05:48:54;;;;;;;34.15;16.50;;;;;;;-0.39;100.00;103004.81;5163057;28;20061;-74
2023/04/03 05:51:30;;;;;;;32.70;16.10;;;;;;;-0.36;100.00;102997.66;5162604;28;20073;-73
2023/04/03 05:54:23;;;;;;;35.55;17.05;;;;;;;-0.29;100.00;102999.22;5163144;28;20034;-74
2023/04/03 05:56:53;;;;;;;35.08;16.60;;;;;;;-0.21;100.00;103011.31;5162689;28;20026;-74
2023/04/03 05:59:24;;;;;;;36.67;16.90;;;;;;;-0.15;100.00;103005.88;5161664;28;20032;-73
2023/04/03 06:01:54;;;;;;;36.13;16.70;;;;;;;-0.08;100.00;103002.16;5162290;28;20019;-73
2023/04/03 06:04:25;;;;;;;40.63;18.15;;;;;;;0.02;100.00;103008.03;5163069;28;20084;-74
2023/04/03 06:06:57;;;;;;;39.22;16.48;;;;;;;0.13;100.00;103011.22;5161250;28;20108;-74
2023/04/03 06:09:30;;;;;;;29.73;16.85;;;;;;;0.41;100.00;103011.25;5162676;28;20026;-74
2023/04/03 06:12:01;;;;;;;28.65;15.45;;;;;;;1.11;100.00;103008.06;5163042;28;20023;-74
2023/04/03 06:14:31;;;;;;;25.83;13.60;;;;;;;1.99;100.00;103009.28;5149030;28;20515;-74
2023/04/03 06:17:02;;;;;;;23.67;12.18;;;;;;;2.78;100.00;103013.22;5162308;28;20038;-74
2023/04/03 06:19:32;;;;;;;21.60;10.57;;;;;;;3.46;100.00;103020.03;5162340;28;20025;-74
2023/04/03 06:22:03;;;;;;;17.55;9.57;;;;;;;4.05;100.00;103027.09;5162382;28;20100;-74
2023/04/03 06:24:35;;;;;;;20.98;8.30;;;;;;;4.56;100.00;103020.25;5162557;28;20030;-74
2023/04/03 06:27:05;;;;;;;18.08;8.55;;;;;;;4.84;100.00;103021.59;5160608;28;20030;-75
2023/04/03 06:29:36;;;;;;;14.70;7.38;;;;;;;5.00;100.00;103009.22;5162168;28;20510;-75
2023/04/03 06:32:07;;;;;;;13.48;7.55;;;;;;;5.30;100.00;103017.44;5162786;28;20506;-74
2023/04/03 06:34:37;;;;;;;12.77;7.35;;;;;;;5.64;100.00;103019.22;5161454;28;20041;-75
2023/04/03 06:37:25;;;;;;;10.75;6.30;;;;;;;5.74;100.00;103016.91;5161485;28;20025;-74
2023/04/03 06:39:56;;;;;;;14.15;6.68;;;;;;;5.72;100.00;103016.13;5162212;28;20030;-75
2023/04/03 06:42:27;;;;;;;17.75;7.38;;;;;;;5.90;100.00;103020.47;5162284;28;20074;-74
2023/04/03 06:44:57;;;;;;;18.35;6.70;;;;;;;6.14;100.00;103020.97;5162310;28;20407;-75
2023/04/03 06:47:28;;;;;;;10.57;5.75;;;;;;;6.34;100.00;103022.53;5162282;28;20025;-75
2023/04/03 06:49:58;;;;;;;12.25;6.05;;;;;;;6.26;100.00;103027.44;5161693;28;20032;-75
2023/04/03 06:52:29;;;;;;;9.70;5.82;;;;;;;6.08;100.00;103018.66;5162491;28;20380;-75
2023/04/03 06:55:00;;;;;;;9.82;5.75;;;;;;;6.10;100.00;103024.75;5162119;28;20022;-75
2023/04/03 06:57:31;;;;;;;10.48;5.95;;;;;;;6.00;100.00;103023.53;5160813;28;20041;-75
2023/04/03 07:00:03;;;;;;;11.02;6.60;;;;;;;6.24;100.00;103024.00;5160827;28;20026;-75
2023/04/03 07:02:34;;;;;;;12.70;5.65;;;;;;;6.61;100.00;103021.91;5161144;28;20419;-75
2023/04/03 07:05:05;;;;;;;10.15;6.15;;;;;;;6.59;100.00;103027.34;5162143;28;20037;-75
2023/04/03 07:07:37;;;;;;;16.70;5.30;;;;;;;6.28;100.00;103030.03;5160688;28;20027;-75
2023/04/03 07:10:08;;;;;;;13.18;6.00;;;;;;;6.13;100.00;103040.59;5162111;28;20022;-75
2023/04/03 07:12:39;;;;;;;8.70;5.82;;;;;;;6.51;100.00;103034.06;5157370;28;20373;-75
2023/04/03 07:15:12;;;;;;;12.32;5.35;;;;;;;6.48;100.00;103029.78;5152530;28;20022;-75
2023/04/03 07:17:42;;;;;;;11.88;4.90;;;;;;;6.79;100.00;103036.03;5161267;28;20034;-75
2023/04/03 07:20:13;;;;;;;12.80;5.13;;;;;;;6.59;100.00;103039.84;5160973;28;20044;-75
2023/04/03 07:22:43;;;;;;;10.65;4.43;;;;;;;6.72;100.00;103039.03;5161875;28;20026;-75
2023/04/03 07:25:13;;;;;;;10.98;4.75;;;;;;;6.96;100.00;103041.22;5161246;28;20113;-75
2023/04/03 07:27:44;;;;;;;11.68;4.50;;;;;;;6.87;100.00;103042.63;5161582;28;20038;-75
2023/04/03 07:30:15;;;;;;;10.90;4.32;;;;;;;7.12;100.00;103049.19;5161452;28;20475;-75
2023/04/03 07:32:45;;;;;;;9.90;4.78;;;;;;;7.10;100.00;103043.97;5162310;28;20014;-75
2023/04/03 07:35:17;;;;;;;10.30;4.63;;;;;;;7.13;100.00;103049.13;5161838;28;20165;-75
2023/04/03 07:37:47;;;;;;;8.88;4.50;;;;;;;7.01;100.00;103048.03;5159957;28;20030;-75
2023/04/03 07:40:18;;;;;;;11.30;4.63;;;;;;;6.89;100.00;103050.56;5161673;28;20414;-75
2023/04/03 07:42:48;;;;;;;9.45;4.43;;;;;;;7.18;100.00;103051.53;5161935;28;20028;-75
2023/04/03 07:45:19;;;;;;;12.88;4.60;;;;;;;7.60;100.00;103053.44;5161800;28;20077;-75
2023/04/03 07:47:49;;;;;;;8.60;4.43;;;;;;;8.26;100.00;103058.22;5160446;28;20033;-74
2023/04/03 07:50:20;;;;;;;14.10;4.45;;;;;;;8.70;100.00;103059.03;5164795;28;20028;-75
2023/04/03 07:52:52;;;;;;;8.35;4.40;;;;;;;8.99;100.00;103067.81;5165761;28;20023;-74
2023/04/03 07:55:23;;;;;;;9.60;4.10;;;;;;;8.45;100.00;103065.09;5165406;28;20030;-75
2023/04/03 07:57:53;;;;;;;9.18;3.50;;;;;;;8.29;100.00;103071.41;5164972;28;20022;-75
2023/04/03 08:00:24;;;;;;;7.47;3.70;;;;;;;8.47;100.00;103071.19;5165121;28;20511;-75
2023/04/03 08:02:55;;;;;;;11.45;3.60;;;;;;;8.52;100.00;103069.94;5192344;28;20142;-75
2023/04/03 08:05:26;;;;;;;7.95;3.70;;;;;;;8.67;100.00;103068.09;5165262;28;20060;-75
2023/04/03 08:07:56;;;;;;;10.05;4.25;;;;;;;8.39;100.00;103074.38;5163464;28;20026;-75
2023/04/03 08:10:29;;;;;;;10.13;3.42;;;;;;;8.22;100.00;103074.53;5161490;28;20037;-75
2023/04/03 08:13:01;;;;;;;14.90;3.75;;;;;;;9.04;100.00;103071.06;5163088;28;20022;-75
2023/04/03 08:15:32;;;;;;;10.10;3.80;;;;;;;8.86;100.00;103065.06;5163849;28;20026;-75
2023/04/03 08:18:03;;;;;;;8.15;3.35;;;;;;;8.77;100.00;103076.38;5163657;28;20502;-75
2023/04/03 08:20:33;;;;;;;11.30;3.38;;;;;;;9.18;100.00;103072.78;5161612;28;20026;-75
2023/04/03 08:23:05;;;;;;;9.18;3.17;;;;;;;9.31;100.00;103071.00;5163688;28;20026;-75
2023/04/03 08:25:51;;;;;;;8.65;2.58;;;;;;;9.34;100.00;103068.13;5162703;28;20023;-75
2023/04/03 08:28:21;;;;;;;7.85;2.88;;;;;;;9.88;100.00;103064.41;5163041;28;20483;-76
2023/04/03 08:30:52;;;;;;;14.52;3.92;;;;;;;9.74;100.00;103068.03;5162696;28;20034;-76
2023/04/03 08:33:22;;;;;;;11.27;3.10;;;;;;;9.60;100.00;103069.88;5163707;28;20076;-76
2023/04/03 08:35:53;;;;;;;6.65;2.65;;;;;;;9.76;100.00;103060.78;5163439;28;20554;-75
2023/04/03 08:38:23;;;;;;;6.93;2.40;;;;;;;9.81;100.00;103072.03;5161979;28;20018;-76
2023/04/03 08:41:31;;;;;;;6.95;2.65;;;;;;;9.75;100.00;103077.81;5162567;28;20033;-75
2023/04/03 08:44:27;;;;;;;6.85;2.95;;;;;;;9.72;100.00;103073.50;5162923;28;20069;-76
2023/04/03 08:47:04;;;;;;;10.43;3.07;;;;;;;9.97;100.00;103072.66;5162893;28;20030;-75
2023/04/03 08:49:46;;;;;;;6.45;2.63;;;;;;;9.79;100.00;103073.97;5162644;28;20277;-75
2023/04/03 08:52:20;;;;;;;6.43;2.75;;;;;;;10.50;100.00;103076.06;5162923;28;20022;-75
2023/04/03 08:54:52;;;;;;;6.10;2.40;;;;;;;10.22;100.00;103073.59;5162382;28;20080;-76
2023/04/03 08:57:44;;;;;;;13.38;3.00;;;;;;;10.70;100.00;103068.38;5162507;28;20084;-76
2023/04/03 09:00:17;;;;;;;7.65;2.30;;;;;;;10.84;100.00;103071.75;5149937;28;20026;-75
2023/04/03 09:02:52;;;;;;;9.10;2.35;;;;;;;10.40;100.00;103069.63;5162507;28;20022;-76
2023/04/03 09:05:45;;;;;;;6.65;2.25;;;;;;;9.78;100.00;103065.03;5162630;28;20045;-76
2023/04/03 09:08:31;;;;;;;6.43;2.28;;;;;;;9.77;100.00;103062.47;5162396;28;20100;-76
2023/04/03 09:11:26;;;;;;;11.10;2.45;;;;;;;9.63;100.00;103070.63;5161635;28;20031;-76
2023/04/03 09:14:07;;;;;;;6.07;2.20;;;;;;;10.02;100.00;103061.63;5162817;28;20076;-76
2023/04/03 09:16:52;;;;;;;5.82;2.15;;;;;;;10.10;100.00;103057.44;5162581;28;20095;-76
2023/04/03 09:19:42;;;;;;;6.32;2.50;;;;;;;10.60;100.00;103077.09;5162424;28;20034;-76
2023/04/03 09:22:32;;;;;;;8.45;2.60;;;;;;;10.63;100.00;103068.81;5161863;28;20522;-76
2023/04/03 09:25:16;;;;;;;5.05;2.38;;;;;;;11.09;100.00;103065.41;5162621;28;20027;-76
2023/04/03 09:27:47;;;;;;;6.75;2.22;;;;;;;11.31;100.00;103061.09;5149117;28;20030;-76
2023/04/03 09:30:21;;;;;;;7.78;3.05;;;;;;;11.28;100.00;103067.53;5161111;28;20050;-76
2023/04/03 09:32:54;;;;;;;7.50;2.17;;;;;;;11.06;100.00;103057.56;5162258;28;20101;-76
2023/04/03 09:35:27;;;;;;;6.80;2.20;;;;;;;10.95;100.00;103064.72;5162264;28;20026;-76
2023/04/03 09:38:11;;;;;;;8.60;2.50;;;;;;;11.39;100.00;103064.88;5161803;28;20033;-76
2023/04/03 09:40:45;;;;;;;8.63;2.47;;;;;;;11.46;100.00;103065.28;5147806;28;20045;-75
2023/04/03 09:43:22;;;;;;;7.22;2.65;;;;;;;11.46;100.00;103057.22;5161921;28;20132;-76
2023/04/03 09:45:53;;;;;;;4.78;2.30;;;;;;;10.70;100.00;103057.63;5160871;28;20049;-76
2023/04/03 09:48:27;;;;;;;6.88;2.10;;;;;;;10.39;100.00;103057.16;5161524;28;20571;-76
2023/04/03 09:51:01;;;;;;;5.15;1.90;;;;;;;10.50;100.00;103046.53;5160897;28;20026;-76
2023/04/03 09:53:35;;;;;;;8.23;2.95;;;;;;;10.57;100.00;103044.25;5160790;28;20084;-75
2023/04/03 09:56:15;;;;;;;7.63;2.20;;;;;;;10.68;100.00;103044.31;5161566;28;20138;-76
2023/04/03 09:58:59;;;;;;;4.93;2.28;;;;;;;11.13;100.00;103033.78;5160711;28;20057;-75
2023/04/03 10:01:33;;;;;;;6.03;2.05;;;;;;;11.16;100.00;103030.88;5159235;28;20049;-76
2023/04/03 10:04:17;;;;;;;5.72;1.55;;;;;;;10.89;100.00;103028.41;5161819;28;20035;-76
2023/04/03 10:07:00;;;;;;;5.70;1.90;;;;;;;10.21;100.00;103031.66;5180892;28;20030;-76
2023/04/03 10:09:33;;;;;;;5.82;2.20;;;;;;;10.31;100.00;103022.00;5161000;28;20042;-76
2023/04/03 10:12:06;;;;;;;7.40;2.00;;;;;;;10.71;100.00;103021.75;5160854;28;20041;-76
2023/04/03 10:14:39;;;;;;;10.88;2.08;;;;;;;10.78;100.00;103012.25;5148553;28;20029;-76
2023/04/03 10:17:28;;;;;;;7.38;1.98;;;;;;;10.89;100.00;103025.72;5160801;28;20037;-75
2023/04/03 10:20:24;;;;;;;5.25;1.88;;;;;;;10.75;100.00;103020.56;5161117;28;20030;-76
2023/04/03 10:23:09;;;;;;;4.55;2.15;;;;;;;10.21;100.00;103018.25;5159959;28;20037;-75
2023/04/03 10:25:50;;;;;;;7.57;2.53;;;;;;;9.93;100.00;103012.16;5161280;28;20368;-75
2023/04/03 10:28:58;;;;;;;4.55;1.98;;;;;;;10.29;100.00;103010.50;5161007;28;20113;-75
2023/04/03 10:32:07;;;;;;;8.95;2.60;;;;;;;10.44;100.00;103008.53;5151663;28;20026;-76
2023/04/03 10:34:42;;;;;;;5.10;1.83;;;;;;;10.07;100.00;103011.19;5182589;28;20084;-75
2023/04/03 10:37:24;;;;;;;2.60;1.40;;;;;;;9.94;100.00;103008.53;5160771;28;20052;-75
2023/04/03 10:40:01;;;;;;;5.60;1.50;;;;;;;9.89;100.00;103005.34;5161056;28;20041;-75
2023/04/03 10:43:10;;;;;;;2.85;1.70;;;;;;;9.77;100.00;102998.16;5160857;28;20399;-75
2023/04/03 10:45:57;;;;;;;4.40;1.58;;;;;;;9.85;100.00;102995.78;5161171;28;20089;-75
2023/04/03 10:48:45;;;;;;;5.55;1.50;;;;;;;9.62;100.00;102985.81;5160766;28;20026;-75
2023/04/03 10:51:36;;;;;;;7.07;1.75;;;;;;;9.65;100.00;102993.66;5159161;28;20504;-75
2023/04/03 10:54:24;;;;;;;5.50;1.17;;;;;;;9.45;98.63;102990.56;5161116;28;20042;-74
2023/04/03 10:57:00;;;;;;;4.80;2.00;;;;;;;9.23;100.00;102987.63;5149358;28;20034;-75
2023/04/03 10:59:35;;;;;;;4.07;1.92;;;;;;;9.72;100.00;102986.88;5160343;28;20137;-75
2023/04/03 11:02:22;;;;;;;3.93;1.07;;;;;;;9.76;100.00;102999.13;5160282;28;20030;-75
2023/04/03 11:05:04;;;;;;;4.72;1.50;;;;;;;9.78;100.00;102994.50;5161195;28;20034;-75
2023/04/03 11:07:55;;;;;;;5.20;1.77;;;;;;;9.74;100.00;102988.50;5160438;28;20031;-75
2023/04/03 11:10:36;;;;;;;3.30;1.08;;;;;;;9.87;100.00;102977.75;5159703;28;20026;-75
2023/04/03 11:13:11;;;;;;;9.10;2.08;;;;;;;9.81;100.00;102979.06;5161307;28;20027;-75
2023/04/03 11:15:45;;;;;;;3.33;1.20;;;;;;;10.22;100.00;102971.66;5161646;28;20026;-75
2023/04/03 11:18:21;;;;;;;3.85;1.67;;;;;;;10.36;100.00;102969.72;5161222;28;20030;-75
2023/04/03 11:21:03;;;;;;;4.78;1.58;;;;;;;10.26;100.00;102975.88;5160777;28;20037;-75
2023/04/03 11:23:36;;;;;;;4.38;1.50;;;;;;;10.11;89.18;102972.47;5162379;28;20069;-75
2023/04/03 11:26:11;;;;;;;4.60;1.92;;;;;;;10.32;99.49;102962.00;5163221;28;20026;-75
2023/04/03 11:28:42;;;;;;;3.65;1.17;;;;;;;10.46;86.36;102966.34;5164324;28;20088;-75
2023/04/03 11:31:45;;;;;;;6.03;1.80;;;;;;;9.91;69.08;102963.16;5158753;28;20050;-76
2023/04/03 11:34:40;;;;;;;5.00;1.08;;;;;;;9.80;68.67;102961.25;5152752;28;20069;-75
2023/04/03 11:37:21;;;;;;;2.67;1.10;;;;;;;9.97;68.20;102959.19;5163374;28;20031;-75
2023/04/03 11:40:23;;;;;;;5.85;2.15;;;;;;;10.15;76.03;102940.91;5164090;28;20164;-75
2023/04/03 11:43:05;;;;;;;3.28;1.02;;;;;;;10.00;71.11;102950.94;5163180;28;20030;-75
2023/04/03 11:45:38;;;;;;;6.68;1.23;;;;;;;9.72;60.63;102944.84;5150092;28;20089;-75
2023/04/03 11:48:20;;;;;;;1.55;1.00;;;;;;;10.03;75.73;102934.59;5163629;28;20116;-75